Time;durP1;ratioP1;P1;durP2;ratioP2;P2;SDS_P1;SDS_P2;PMS_P1;PMS_P2;Temp;Humidity;BMP_temperature;BMP_pressure;BME280_temperature;BME280_humidity;BME280_pressure;Samples;Min_cycle;Max_cycle;Signal;HPM_P1;HPM_P2
2024/01/31 00:03:14;;;;;;;;;;;;;;;-3.72;100.00;96527.56;10467372;28;20371;-87
2024/01/31 00:08:14;;;;;;;;;;;;;;;-3.96;100.00;96529.63;10465275;28;19974;-86
2024/01/31 00:13:14;;;;;;;;;;;;;;;-4.05;100.00;96542.75;10464472;28;20385;-86
2024/01/31 00:18:15;;;;;;;;;;;;;;;-4.22;100.00;96534.59;10465468;28;20418;-86
2024/01/31 00:23:15;;;;;;;;;;;;;;;-4.09;100.00;96531.69;10468325;28;19919;-85
2024/01/31 00:28:15;;;;;;;;;;;;;;;-4.08;100.00;96533.34;10468560;28;19970;-87
2024/01/31 00:33:15;;;;;;;;;;;;;;;-4.03;100.00;96536.41;10470362;28;20022;-85
2024/01/31 00:38:15;;;;;;;;;;;;;;;-4.02;100.00;96534.59;10473418;28;19920;-86
2024/01/31 00:43:16;;;;;;;;;;;;;;;-4.13;100.00;96525.91;10475082;28;19912;-86
2024/01/31 00:48:16;;;;;;;;;;;;;;;-4.23;100.00;96525.03;10475389;28;19932;-85
2024/01/31 00:53:16;;;;;;;;;;;;;;;-4.29;100.00;96529.03;10473742;28;19912;-85
2024/01/31 00:58:17;;;;;;;;;;;;;;;-4.22;100.00;96520.66;10477056;28;20305;-84
2024/01/31 01:03:17;;;;;;;;;;;;;;;-4.52;100.00;96514.50;10473246;28;19951;-85
2024/01/31 01:08:18;;;;;;;;;;;;;;;-4.36;100.00;96522.69;10473489;28;20422;-85
2024/01/31 01:13:18;;;;;;;;;;;;;;;-4.33;100.00;96522.41;10475589;28;19916;-85
2024/01/31 01:18:21;;;;;;;;;;;;;;;-4.23;100.00;96521.59;10481219;28;20374;-87
2024/01/31 01:23:21;;;;;;;;;;;;;;;-4.23;100.00;96516.34;10513845;28;19916;-86
2024/01/31 01:28:21;;;;;;;;;;;;;;;-4.21;100.00;96512.63;10478123;28;19916;-86
2024/01/31 01:33:21;;;;;;;;;;;;;;;-4.14;100.00;96508.47;10477012;28;20409;-87
2024/01/31 01:38:22;;;;;;;;;;;;;;;-4.22;100.00;96502.28;10470507;28;19912;-85
2024/01/31 01:43:23;;;;;;;;;;;;;;;-4.17;100.00;96500.03;10471138;28;19935;-85
2024/01/31 01:48:23;;;;;;;;;;;;;;;-4.26;100.00;96501.69;10472265;28;19928;-85
2024/01/31 01:53:23;;;;;;;;;;;;;;;-4.22;100.00;96497.84;10470234;28;20391;-85
2024/01/31 01:58:24;;;;;;;;;;;;;;;-4.17;100.00;96500.03;10471854;28;19919;-86
2024/01/31 02:03:31;;;;;;;;;;;;;;;-4.20;100.00;96492.44;10471286;28;19922;-85
2024/01/31 02:08:43;;;;;;;;;;;;;;;-4.23;100.00;96487.47;10471469;28;19925;-84
2024/01/31 02:13:53;;;;;;;;;;;;;;;-4.29;100.00;96489.66;10468126;28;19963;-85
2024/01/31 02:18:53;;;;;;;;;;;;;;;-4.39;100.00;96486.22;10470713;28;19913;-86
2024/01/31 02:24:05;;;;;;;;;;;;;;;-4.39;100.00;96483.59;10472925;28;19922;-85
2024/01/31 02:29:05;;;;;;;;;;;;;;;-4.72;100.00;96482.16;10469808;28;20013;-85
2024/01/31 02:34:05;;;;;;;;;;;;;;;-4.59;100.00;96479.28;10470497;28;20090;-86
2024/01/31 02:39:13;;;;;;;;;;;;;;;-4.70;100.00;96480.22;10469751;28;19916;-86
2024/01/31 02:44:13;;;;;;;;;;;;;;;-4.94;100.00;96468.28;10471308;28;19997;-85
2024/01/31 02:49:13;;;;;;;;;;;;;;;-5.16;100.00;96469.34;10469415;28;19951;-86
2024/01/31 02:54:14;;;;;;;;;;;;;;;-5.21;100.00;96476.75;10468085;28;19912;-84
2024/01/31 02:59:14;;;;;;;;;;;;;;;-4.99;100.00;96473.13;10467830;28;20356;-84
2024/01/31 03:04:14;;;;;;;;;;;;;;;-5.04;100.00;96478.75;10467020;28;20328;-84
2024/01/31 03:09:15;;;;;;;;;;;;;;;-5.03;100.00;96469.09;10467668;28;19923;-86
2024/01/31 03:14:19;;;;;;;;;;;;;;;-4.92;100.00;96466.38;10464126;28;19913;-85
2024/01/31 03:19:20;;;;;;;;;;;;;;;-4.97;100.00;96468.56;10466537;28;19912;-85
2024/01/31 03:24:21;;;;;;;;;;;;;;;-5.03;100.00;96463.84;10466647;28;19918;-85
2024/01/31 03:29:21;;;;;;;;;;;;;;;-5.22;100.00;96457.59;10465419;28;19951;-86
2024/01/31 03:34:21;;;;;;;;;;;;;;;-5.00;100.00;96453.91;10472450;28;19919;-86
2024/01/31 03:39:22;;;;;;;;;;;;;;;-5.00;100.00;96451.28;10471520;28;20436;-85
2024/01/31 03:44:27;;;;;;;;;;;;;;;-5.02;100.00;96455.84;10470713;28;19959;-81
2024/01/31 03:49:27;;;;;;;;;;;;;;;-4.94;100.00;96454.34;10463794;28;19979;-82
2024/01/31 03:54:27;;;;;;;;;;;;;;;-4.91;100.00;96461.94;10464110;28;19963;-81
2024/01/31 03:59:28;;;;;;;;;;;;;;;-5.01;100.00;96465.38;10463576;28;20661;-82
2024/01/31 04:04:31;;;;;;;;;;;;;;;-5.18;100.00;96464.22;10463340;28;19916;-81
2024/01/31 04:09:31;;;;;;;;;;;;;;;-5.25;100.00;96480.59;10463824;28;19946;-82
2024/01/31 04:14:31;;;;;;;;;;;;;;;-5.27;100.00;96475.50;10463598;28;19946;-82
2024/01/31 04:19:32;;;;;;;;;;;;;;;-5.40;100.00;96478.34;10462539;28;20399;-80
2024/01/31 04:24:32;;;;;;;;;;;;;;;-5.42;100.00;96482.88;10461681;28;19916;-80
2024/01/31 04:29:32;;;;;;;;;;;;;;;-5.49;100.00;96476.50;10458501;28;19920;-81
2024/01/31 04:34:34;;;;;;;;;;;;;;;-5.47;100.00;96478.97;10460219;28;19920;-82
2024/01/31 04:39:37;;;;;;;;;;;;;;;-5.43;100.00;96483.00;10482506;28;19920;-82
2024/01/31 04:44:37;;;;;;;;;;;;;;;-5.39;100.00;96479.97;10477146;28;19916;-81
2024/01/31 04:49:37;;;;;;;;;;;;;;;-5.35;100.00;96484.00;10468130;28;19929;-82
2024/01/31 04:54:39;;;;;;;;;;;;;;;-5.28;100.00;96480.88;10468867;28;20435;-82
2024/01/31 04:59:39;;;;;;;;;;;;;;;-5.42;100.00;96475.00;10476065;28;19952;-80
2024/01/31 05:04:40;;;;;;;;;;;;;;;-5.51;100.00;96460.09;10456632;28;20430;-88
2024/01/31 05:09:40;;;;;;;;;;;;;;;-5.49;100.00;96466.00;10467748;28;20294;-80
2024/01/31 05:14:40;;;;;;;;;;;;;;;-5.53;100.00;96473.28;10472100;28;20057;-81
2024/01/31 05:19:40;;;;;;;;;;;;;;;-5.36;100.00;96468.41;10468556;28;19913;-81
2024/01/31 05:24:40;;;;;;;;;;;;;;;-5.18;100.00;96463.38;10469757;28;19924;-82
2024/01/31 05:29:41;;;;;;;;;;;;;;;-5.07;100.00;96473.78;10446916;28;20062;-82
2024/01/31 05:34:44;;;;;;;;;;;;;;;-5.06;100.00;96485.94;10473091;28;19913;-81
2024/01/31 05:39:44;;;;;;;;;;;;;;;-5.11;100.00;96482.03;10470743;28;19920;-82
2024/01/31 05:44:44;;;;;;;;;;;;;;;-5.08;100.00;96485.25;10472767;28;20247;-84
2024/01/31 05:49:44;;;;;;;;;;;;;;;-5.03;100.00;96496.13;10472570;28;19924;-85
2024/01/31 05:54:45;;;;;;;;;;;;;;;-5.28;100.00;96501.84;10457781;28;20325;-83
2024/01/31 05:59:45;;;;;;;;;;;;;;;-5.63;100.00;96503.03;10444605;28;19946;-81
2024/01/31 06:04:45;;;;;;;;;;;;;;;-5.72;100.00;96499.38;10476951;28;19977;-83
2024/01/31 06:09:45;;;;;;;;;;;;;;;-5.75;100.00;96510.09;10477390;28;19943;-83
2024/01/31 06:14:46;;;;;;;;;;;;;;;-5.85;100.00;96515.28;10477160;28;19912;-82
2024/01/31 06:19:47;;;;;;;;;;;;;;;-5.77;100.00;96518.09;10476125;28;19916;-83
2024/01/31 06:24:47;;;;;;;;;;;;;;;-5.92;100.00;96509.72;10474980;28;20401;-83
2024/01/31 06:29:47;;;;;;;;;;;;;;;-5.76;100.00;96508.44;10444141;28;19920;-82
2024/01/31 06:34:48;;;;;;;;;;;;;;;-5.68;100.00;96513.88;10474803;28;20268;-83
2024/01/31 06:39:48;;;;;;;;;;;;;;;-5.52;100.00;96516.88;10476592;28;19923;-84
2024/01/31 06:44:50;;;;;;;;;;;;;;;-5.21;100.00;96510.84;10474744;28;20049;-82
2024/01/31 06:49:50;;;;;;;;;;;;;;;-5.30;100.00;96520.31;10468157;28;19925;-82
2024/01/31 06:54:50;;;;;;;;;;;;;;;-5.39;100.00;96519.28;10450836;28;20310;-83
2024/01/31 06:59:51;;;;;;;;;;;;;;;-5.53;100.00;96517.00;10454250;28;19920;-83
2024/01/31 07:04:51;;;;;;;;;;;;;;;-5.42;100.00;96519.53;10477218;28;19912;-82
2024/01/31 07:09:51;;;;;;;;;;;;;;;-5.25;100.00;96515.50;10475162;28;20452;-83
2024/01/31 07:14:52;;;;;;;;;;;;;;;-4.91;100.00;96501.28;10460954;28;19913;-82
2024/01/31 07:19:54;;;;;;;;;;;;;;;-4.69;100.00;96501.09;10474094;28;20015;-83
2024/01/31 07:24:54;;;;;;;;;;;;;;;-4.63;100.00;96497.91;10479928;28;19920;-83
2024/01/31 07:29:54;;;;;;;;;;;;;;;-4.34;100.00;96498.94;10476443;28;20434;-84
2024/01/31 07:34:55;;;;;;;;;;;;;;;-4.08;100.00;96496.59;10474740;28;20318;-84
2024/01/31 07:39:56;;;;;;;;;;;;;;;-3.80;100.00;96494.09;10509225;28;20011;-84
2024/01/31 07:44:56;;;;;;;;;;;;;;;-2.43;100.00;96486.56;10473846;28;19963;-84
2024/01/31 07:49:57;;;;;;;;;;;;;;;-1.11;100.00;96478.88;10471325;28;19968;-83
2024/01/31 07:54:57;;;;;;;;;;;;;;;-0.91;100.00;96480.31;10439640;28;19912;-83
2024/01/31 07:59:58;;;;;;;;;;;;;;;-0.62;100.00;96473.78;10473727;28;19993;-83
2024/01/31 08:04:58;;;;;;;;;;;;;;;0.65;100.00;96466.47;10474236;28;20003;-84
2024/01/31 08:09:58;;;;;;;;;;;;;;;1.96;86.59;96453.69;10438448;28;20390;-82
2024/01/31 08:14:59;;;;;;;;;;;;;;;2.41;77.81;96448.53;10465804;28;19946;-82
2024/01/31 08:20:09;;;;;;;;;;;;;;;3.75;67.08;96447.69;10473458;28;19966;-83
2024/01/31 08:25:10;;;;;;;;;;;;;;;5.39;57.45;96427.28;10473506;28;20011;-82
2024/01/31 08:30:10;;;;;;;;;;;;;;;6.90;50.31;96420.75;10470975;28;19916;-83
2024/01/31 08:35:13;;;;;;;;;;;;;;;8.15;46.56;96418.81;10473662;28;19912;-82
2024/01/31 08:40:14;;;;;;;;;;;;;;;8.29;45.36;96409.66;10473558;28;19919;-83
2024/01/31 08:45:15;;;;;;;;;;;;;;;7.76;44.88;96418.84;10450399;28;19920;-82
2024/01/31 08:50:15;;;;;;;;;;;;;;;5.72;49.02;96424.75;10451881;28;19925;-84
2024/01/31 08:55:15;;;;;;;;;;;;;;;4.40;53.69;96421.13;10472766;28;19917;-83
2024/01/31 09:00:16;;;;;;;;;;;;;;;3.75;55.95;96410.47;10473189;28;20001;-82
2024/01/31 09:05:30;;;;;;;;;;;;;;;3.92;56.23;96403.06;10471963;28;19920;-83
2024/01/31 09:10:30;;;;;;;;;;;;;;;3.79;58.64;96403.75;10437248;28;19917;-82
2024/01/31 09:15:32;;;;;;;;;;;;;;;3.58;58.19;96394.75;10467245;28;19923;-84
2024/01/31 09:20:32;;;;;;;;;;;;;;;3.69;61.68;96392.63;10441967;28;19948;-82
2024/01/31 09:25:34;;;;;;;;;;;;;;;3.93;61.34;96380.78;10464131;28;20022;-83
2024/01/31 09:30:34;;;;;;;;;;;;;;;5.28;54.53;96370.81;10473831;28;19975;-83
2024/01/31 09:35:35;;;;;;;;;;;;;;;6.49;51.57;96353.19;10515976;28;19968;-82
2024/01/31 09:40:35;;;;;;;;;;;;;;;6.60;48.08;96341.06;10480591;28;19958;-82
2024/01/31 09:45:38;;;;;;;;;;;;;;;6.89;47.73;96328.22;10479949;28;19916;-82
2024/01/31 09:50:39;;;;;;;;;;;;;;;6.93;47.48;96323.28;10440012;28;19929;-83
2024/01/31 09:55:39;;;;;;;;;;;;;;;6.36;48.99;96321.13;10439811;28;19912;-83
2024/01/31 10:00:40;;;;;;;;;;;;;;;6.15;49.42;96309.69;10459244;28;19961;-82
2024/01/31 10:06:13;;;;;;;;;;;;;;;6.69;49.34;96301.56;10444908;28;19912;-82
2024/01/31 10:11:14;;;;;;;;;;;;;;;7.24;48.24;96285.13;10477408;28;20430;-83
2024/01/31 10:16:15;;;;;;;;;;;;;;;8.09;45.79;96281.25;10445051;28;20035;-83
2024/01/31 10:21:19;;;;;;;;;;;;;;;7.49;45.54;96279.84;10435751;28;20008;-83
2024/01/31 10:26:19;;;;;;;;;;;;;;;8.34;43.34;96267.03;10438221;28;20000;-83
2024/01/31 10:31:20;;;;;;;;;;;;;;;8.70;42.50;96255.53;10483477;28;19995;-83
2024/01/31 10:36:21;;;;;;;;;;;;;;;9.67;42.03;96243.16;10464011;28;20657;-82
2024/01/31 10:41:22;;;;;;;;;;;;;;;11.02;39.80;96228.16;10477552;28;20007;-84
2024/01/31 10:46:22;;;;;;;;;;;;;;;13.28;35.16;96206.56;10460671;28;19916;-83
2024/01/31 10:51:23;;;;;;;;;;;;;;;16.25;30.63;96186.63;10436810;28;19935;-82
2024/01/31 10:56:24;;;;;;;;;;;;;;;-146.07;100.00;70291.31;10459865;28;19944;-82
2024/01/31 11:01:28;;;;;;;;;;;;;;;-146.07;100.00;70291.31;10476484;28;19912;-82
2024/01/31 11:06:41;;;;;;;;;;;;;;;-146.07;100.00;70291.31;10462947;28;19925;-82
2024/01/31 11:11:41;;;;;;;;;;;;;;;-146.07;100.00;70291.31;10450412;28;20351;-82
2024/01/31 11:16:47;;;;;;;;;;;;;;;-146.07;100.00;70291.31;10476974;28;20011;-82
2024/01/31 11:21:47;;;;;;;;;;;;;;;-146.07;100.00;70291.31;10475581;28;19920;-83
2024/01/31 11:26:51;;;;;;;;;;;;;;;-146.07;100.00;70291.31;10460158;28;19917;-82
2024/01/31 11:31:52;;;;;;;;;;;;;;;-146.07;100.00;70291.31;10466664;28;19923;-82
2024/01/31 11:36:52;;;;;;;;;;;;;;;-146.07;100.00;70291.31;10476084;28;20002;-82
2024/01/31 11:41:54;;;;;;;;;;;;;;;-146.07;100.00;70291.31;10476066;28;20393;-83
2024/01/31 11:46:55;;;;;;;;;;;;;;;-146.07;100.00;70291.31;10476199;28;20295;-83
2024/01/31 11:51:55;;;;;;;;;;;;;;;-146.07;100.00;70291.31;10474881;28;20348;-83
2024/01/31 11:56:56;;;;;;;;;;;;;;;-146.07;100.00;70291.31;10455287;28;19986;-83
2024/01/31 12:01:57;;;;;;;;;;;;;;;-146.07;100.00;70291.31;10435482;28;19920;-82
2024/01/31 12:07:06;;;;;;;;;;;;;;;-146.07;100.00;70291.31;10505097;28;19925;-82
2024/01/31 12:12:07;;;;;;;;;;;;;;;-146.07;100.00;70291.31;10474575;28;19916;-81
2024/01/31 12:17:23;;;;;;;;;;;;;;;-146.07;100.00;70291.31;10475044;28;19923;-83
2024/01/31 12:22:23;;;;;;;;;;;;;;;-146.07;100.00;70291.31;10474348;28;19962;-82
2024/01/31 12:27:23;;;;;;;;;;;;;;;-146.07;100.00;70291.31;10473840;28;20406;-83
2024/01/31 12:32:24;;;;;;;;;;;;;;;-146.07;100.00;70291.31;10474240;28;20003;-83
2024/01/31 12:37:24;;;;;;;;;;;;;;;-146.07;100.00;70291.31;10474836;28;20011;-83
2024/01/31 12:42:24;;;;;;;;;;;;;;;-146.07;100.00;70291.31;10474320;28;19913;-82
2024/01/31 12:47:24;;;;;;;;;;;;;;;-146.07;100.00;70291.31;10473552;28;19926;-83
2024/01/31 12:52:25;;;;;;;;;;;;;;;-146.07;100.00;70291.31;10471757;28;19925;-81
2024/01/31 12:57:25;;;;;;;;;;;;;;;-146.07;100.00;70291.31;10473371;28;20383;-83
2024/01/31 13:02:25;;;;;;;;;;;;;;;-146.07;100.00;70291.31;10473808;28;19913;-83
2024/01/31 13:07:25;;;;;;;;;;;;;;;-146.07;100.00;70291.31;10451495;28;19999;-84
2024/01/31 13:12:27;;;;;;;;;;;;;;;-146.07;100.00;70291.31;10451383;28;19916;-84
2024/01/31 13:17:27;;;;;;;;;;;;;;;-146.07;100.00;70291.31;10439659;28;19912;-83
2024/01/31 13:22:27;;;;;;;;;;;;;;;-146.07;100.00;70291.31;10439304;28;20275;-83
2024/01/31 13:27:30;;;;;;;;;;;;;;;-146.07;100.00;70291.31;10462873;28;19931;-82
2024/01/31 13:32:30;;;;;;;;;;;;;;;-146.07;100.00;70291.31;10479998;28;19923;-83
2024/01/31 13:37:33;;;;;;;;;;;;;;;-146.07;100.00;70291.31;10476454;28;20011;-82
2024/01/31 13:42:33;;;;;;;;;;;;;;;-146.07;100.00;70291.31;10450088;28;19917;-81
2024/01/31 13:47:35;;;;;;;;;;;;;;;7.15;40.62;96072.50;10479528;28;20391;-83
2024/01/31 13:52:36;;;;;;;;;;;;;;;7.02;40.42;96070.78;10478378;28;19921;-84
2024/01/31 13:57:38;;;;;;;;;;;;;;;6.97;40.56;96081.28;10478995;28;19973;-83
2024/01/31 14:02:38;;;;;;;;;;;;;;;6.79;40.21;96068.66;10458552;28;19913;-83
2024/01/31 14:07:38;;;;;;;;;;;;;;;6.73;40.07;96061.53;10470795;28;20405;-83
2024/01/31 14:12:38;;;;;;;;;;;;;;;6.71;40.10;96056.38;10472590;28;20359;-82
2024/01/31 14:17:39;;;;;;;;;;;;;;;6.61;39.84;96064.84;10436223;28;19924;-84
2024/01/31 14:22:39;;;;;;;;;;;;;;;6.28;40.91;96047.19;10469069;28;20495;-84
2024/01/31 14:27:39;;;;;;;;;;;;;;;6.35;40.46;96044.50;10476791;28;20608;-82
2024/01/31 14:32:40;;;;;;;;;;;;;;;6.35;40.46;96044.50;10469775;28;20291;-83
2024/01/31 14:37:47;;;;;;;;;;;;;;;-146.07;100.00;70291.31;10435696;28;19970;-83
2024/01/31 14:42:47;;;;;;;;;;;;;;;-146.07;100.00;70291.31;10436563;28;19912;-81
2024/01/31 14:47:47;;;;;;;;;;;;;;;-146.07;100.00;70291.31;10463225;28;19921;-81
2024/01/31 14:52:48;;;;;;;;;;;;;;;-146.07;100.00;70291.31;10460269;28;19917;-80
2024/01/31 14:57:48;;;;;;;;;;;;;;;-146.07;100.00;70291.31;10472729;28;19913;-79
2024/01/31 15:02:48;;;;;;;;;;;;;;;-146.07;100.00;70291.31;10489781;28;20010;-82
2024/01/31 15:07:48;;;;;;;;;;;;;;;-146.07;100.00;70291.31;10498021;28;20298;-79
2024/01/31 15:12:52;;;;;;;;;;;;;;;-146.07;100.00;70291.31;10482785;28;20011;-79
2024/01/31 15:17:53;;;;;;;;;;;;;;;-146.07;100.00;70291.31;10498020;28;20515;-79
2024/01/31 15:22:53;;;;;;;;;;;;;;;-146.07;100.00;70291.31;10496630;28;20345;-79
2024/01/31 15:27:53;;;;;;;;;;;;;;;-146.07;100.00;70291.31;10491249;28;19912;-80
2024/01/31 15:32:54;;;;;;;;;;;;;;;-146.07;100.00;70291.31;10485695;28;19994;-80
2024/01/31 15:37:54;;;;;;;;;;;;;;;-146.07;100.00;70291.31;10487282;28;19924;-82
2024/01/31 15:42:54;;;;;;;;;;;;;;;-146.07;100.00;70291.31;10496274;28;20672;-81
2024/01/31 15:47:54;;;;;;;;;;;;;;;-146.07;100.00;70291.31;10474781;28;19916;-79
2024/01/31 15:52:55;;;;;;;;;;;;;;;-146.07;100.00;70291.31;10489853;28;20287;-80
2024/01/31 15:57:55;;;;;;;;;;;;;;;-146.07;100.00;70291.31;10489230;28;19913;-79
2024/01/31 16:02:57;;;;;;;;;;;;;;;-146.07;100.00;70291.31;10467229;28;19992;-78
2024/01/31 16:07:57;;;;;;;;;;;;;;;-146.07;100.00;70291.31;10488193;28;20012;-78
2024/01/31 16:12:58;;;;;;;;;;;;;;;-146.07;100.00;70291.31;10484193;28;20298;-78
2024/01/31 16:17:58;;;;;;;;;;;;;;;-146.07;100.00;70291.31;10484084;28;20030;-80
2024/01/31 16:22:58;;;;;;;;;;;;;;;-146.07;100.00;70291.31;10486922;28;20250;-78
2024/01/31 16:27:58;;;;;;;;;;;;;;;-146.07;100.00;70291.31;10467645;28;19912;-78
2024/01/31 16:32:59;;;;;;;;;;;;;;;-146.07;100.00;70291.31;10484558;28;19916;-77
2024/01/31 16:37:59;;;;;;;;;;;;;;;-146.07;100.00;70291.31;10482073;28;19918;-79
2024/01/31 16:42:59;;;;;;;;;;;;;;;-146.07;100.00;70291.31;10480070;28;19946;-78
2024/01/31 16:47:59;;;;;;;;;;;;;;;-146.07;100.00;70291.31;10481857;28;19935;-77
2024/01/31 16:53:01;;;;;;;;;;;;;;;-146.07;100.00;70291.31;10465553;28;22519;-79
2024/01/31 16:58:02;;;;;;;;;;;;;;;-146.07;100.00;70291.31;10484352;28;19939;-82
2024/01/31 17:03:02;;;;;;;;;;;;;;;-146.07;100.00;70291.31;10490400;28;19912;-81
2024/01/31 17:08:03;;;;;;;;;;;;;;;-146.07;100.00;70291.31;10503588;28;20390;-80
2024/01/31 17:13:03;;;;;;;;;;;;;;;-146.07;100.00;70291.31;10483284;28;20290;-81
2024/01/31 17:18:03;;;;;;;;;;;;;;;-146.07;100.00;70291.31;10477476;28;19916;-81
2024/01/31 17:23:04;;;;;;;;;;;;;;;-146.07;100.00;70291.31;10471122;28;20450;-81
2024/01/31 17:28:05;;;;;;;;;;;;;;;-146.07;100.00;70291.31;10473275;28;20351;-81
2024/01/31 17:33:06;;;;;;;;;;;;;;;-146.07;100.00;70291.31;10467297;28;19920;-78
2024/01/31 17:38:06;;;;;;;;;;;;;;;-146.07;100.00;70291.31;10482918;28;20676;-78
2024/01/31 17:43:08;;;;;;;;;;;;;;;-146.07;100.00;70291.31;10466471;28;19912;-89
2024/01/31 17:48:09;;;;;;;;;;;;;;;-146.07;100.00;70291.31;10463080;28;19921;-82
2024/01/31 17:53:09;;;;;;;;;;;;;;;-146.07;100.00;70291.31;10485586;28;19932;-82
2024/01/31 17:58:11;;;;;;;;;;;;;;;-146.07;100.00;70291.31;10487449;28;20011;-83
2024/01/31 18:03:11;;;;;;;;;;;;;;;-146.07;100.00;70291.31;10484800;28;19920;-81
2024/01/31 18:08:11;;;;;;;;;;;;;;;-146.07;100.00;70291.31;10495362;28;19919;-82
2024/01/31 18:13:11;;;;;;;;;;;;;;;-146.07;100.00;70291.31;10508958;28;19985;-81
2024/01/31 18:18:12;;;;;;;;;;;;;;;-146.07;100.00;70291.31;10471804;28;19913;-81
2024/01/31 18:23:12;;;;;;;;;;;;;;;-146.07;100.00;70291.31;10467297;28;20592;-81
2024/01/31 18:28:12;;;;;;;;;;;;;;;-146.07;100.00;70291.31;10500408;28;19999;-79
2024/01/31 18:33:12;;;;;;;;;;;;;;;-146.07;100.00;70291.31;10484992;28;19917;-80
2024/01/31 18:38:13;;;;;;;;;;;;;;;-146.07;100.00;70291.31;10476665;28;19912;-79
2024/01/31 18:43:13;;;;;;;;;;;;;;;-146.07;100.00;70291.31;10513104;28;19920;-80
2024/01/31 18:48:13;;;;;;;;;;;;;;;-146.07;100.00;70291.31;10477538;28;19986;-81
2024/01/31 18:53:13;;;;;;;;;;;;;;;-146.07;100.00;70291.31;10498906;28;20421;-80
2024/01/31 18:58:14;;;;;;;;;;;;;;;-146.07;100.00;70291.31;10493992;28;19920;-81
2024/01/31 19:03:15;;;;;;;;;;;;;;;-146.07;100.00;70291.31;10485825;28;19912;-81
2024/01/31 19:08:15;;;;;;;;;;;;;;;-146.07;100.00;70291.31;10483396;28;19916;-82
2024/01/31 19:13:15;;;;;;;;;;;;;;;-146.07;100.00;70291.31;10462946;28;19920;-81
2024/01/31 19:18:15;;;;;;;;;;;;;;;-146.07;100.00;70291.31;10470358;28;19916;-81
2024/01/31 19:23:16;;;;;;;;;;;;;;;-146.07;100.00;70291.31;10466415;28;20354;-81
2024/01/31 19:28:16;;;;;;;;;;;;;;;-146.07;100.00;70291.31;10466927;28;20318;-80
2024/01/31 19:33:16;;;;;;;;;;;;;;;-146.07;100.00;70291.31;10466569;28;19920;-81
2024/01/31 19:38:16;;;;;;;;;;;;;;;-146.07;100.00;70291.31;10466252;28;20624;-81
2024/01/31 19:43:17;;;;;;;;;;;;;;;-146.07;100.00;70291.31;10468628;28;19913;-80
2024/01/31 19:48:17;;;;;;;;;;;;;;;-146.07;100.00;70291.31;10466421;28;20302;-82
2024/01/31 19:53:17;;;;;;;;;;;;;;;-146.07;100.00;70291.31;10446889;28;19973;-83
2024/01/31 19:58:17;;;;;;;;;;;;;;;-146.07;100.00;70291.31;10464985;28;19916;-83
2024/01/31 20:03:18;;;;;;;;;;;;;;;-146.07;100.00;70291.31;10463705;28;19913;-81
2024/01/31 20:08:31;;;;;;;;;;;;;;;-146.07;100.00;70291.31;10466946;28;19912;-86
2024/01/31 20:13:33;;;;;;;;;;;;;;;-146.07;100.00;70291.31;10487344;28;19916;-90
2024/01/31 20:18:33;;;;;;;;;;;;;;;-146.07;100.00;70291.31;10452404;28;19959;-87
2024/01/31 20:23:33;;;;;;;;;;;;;;;-146.07;100.00;70291.31;10469440;28;20426;-83
2024/01/31 20:28:34;;;;;;;;;;;;;;;-146.07;100.00;70291.31;10462991;28;19912;-82
2024/01/31 20:33:34;;;;;;;;;;;;;;;-146.07;100.00;70291.31;10477042;28;19920;-82
2024/01/31 20:38:35;;;;;;;;;;;;;;;-146.07;100.00;70291.31;10446673;28;19917;-84
2024/01/31 20:43:35;;;;;;;;;;;;;;;-146.07;100.00;70291.31;10448424;28;20375;-81
2024/01/31 20:48:38;;;;;;;;;;;;;;;-146.07;100.00;70291.31;10462572;28;19981;-81
2024/01/31 20:53:38;;;;;;;;;;;;;;;-146.07;100.00;70291.31;10463033;28;20401;-81
2024/01/31 20:58:38;;;;;;;;;;;;;;;-146.07;100.00;70291.31;10462626;28;19912;-81
2024/01/31 21:03:40;;;;;;;;;;;;;;;-146.07;100.00;70291.31;10462692;28;20291;-82
2024/01/31 21:08:40;;;;;;;;;;;;;;;-146.07;100.00;70291.31;10476840;28;20304;-82
2024/01/31 21:13:40;;;;;;;;;;;;;;;-146.07;100.00;70291.31;10458465;28;19916;-81
2024/01/31 21:18:41;;;;;;;;;;;;;;;-146.07;100.00;70291.31;10462632;28;19923;-82
2024/01/31 21:23:41;;;;;;;;;;;;;;;-146.07;100.00;70291.31;10459688;28;20398;-81
2024/01/31 21:28:41;;;;;;;;;;;;;;;-146.07;100.00;70291.31;10468418;28;20326;-81
2024/01/31 21:33:41;;;;;;;;;;;;;;;-146.07;100.00;70291.31;10471344;28;19927;-82
2024/01/31 21:38:42;;;;;;;;;;;;;;;-146.07;100.00;70291.31;10471300;28;19913;-82
2024/01/31 21:43:42;;;;;;;;;;;;;;;-146.07;100.00;70291.31;10470345;28;19919;-82
2024/01/31 21:48:43;;;;;;;;;;;;;;;-146.07;100.00;70291.31;10468555;28;19924;-82
2024/01/31 21:53:48;;;;;;;;;;;;;;;-146.07;100.00;70291.31;10451447;28;20047;-82
2024/01/31 21:58:48;;;;;;;;;;;;;;;-146.07;100.00;70291.31;10468988;28;19939;-81
2024/01/31 22:03:48;;;;;;;;;;;;;;;-146.07;100.00;70291.31;10467834;28;19917;-83
2024/01/31 22:08:49;;;;;;;;;;;;;;;-146.07;100.00;70291.31;10448844;28;19924;-81
2024/01/31 22:13:49;;;;;;;;;;;;;;;-146.07;100.00;70291.31;10481937;28;20302;-81
2024/01/31 22:18:49;;;;;;;;;;;;;;;-146.07;100.00;70291.31;10465119;28;19949;-81
2024/01/31 22:23:49;;;;;;;;;;;;;;;-146.07;100.00;70291.31;10450720;28;19916;-81
2024/01/31 22:28:50;;;;;;;;;;;;;;;-146.07;100.00;70291.31;10464816;28;19928;-81
2024/01/31 22:33:50;;;;;;;;;;;;;;;-146.07;100.00;70291.31;10480373;28;20428;-79
2024/01/31 22:38:53;;;;;;;;;;;;;;;-146.07;100.00;70291.31;10478966;28;20430;-81
2024/01/31 22:43:54;;;;;;;;;;;;;;;-146.07;100.00;70291.31;10462718;28;19916;-80
2024/01/31 22:48:54;;;;;;;;;;;;;;;-146.07;100.00;70291.31;10442580;28;19974;-80
2024/01/31 22:53:56;;;;;;;;;;;;;;;-146.07;100.00;70291.31;10478999;28;19920;-83
2024/01/31 22:58:56;;;;;;;;;;;;;;;-146.07;100.00;70291.31;10449979;28;19960;-82
2024/01/31 23:04:02;;;;;;;;;;;;;;;-146.07;100.00;70291.31;10475583;28;19995;-81
2024/01/31 23:09:05;;;;;;;;;;;;;;;-146.07;100.00;70291.31;10444627;28;19968;-82
2024/01/31 23:14:05;;;;;;;;;;;;;;;-146.07;100.00;70291.31;10449490;28;19913;-81
2024/01/31 23:19:06;;;;;;;;;;;;;;;-146.07;100.00;70291.31;10456719;28;19970;-81
2024/01/31 23:24:06;;;;;;;;;;;;;;;-146.07;100.00;70291.31;10450113;28;19973;-81
2024/01/31 23:29:07;;;;;;;;;;;;;;;-146.07;100.00;70291.31;10463639;28;20363;-81
2024/01/31 23:34:08;;;;;;;;;;;;;;;-146.07;100.00;70291.31;10492521;28;19916;-81
2024/01/31 23:39:08;;;;;;;;;;;;;;;-146.07;100.00;70291.31;10477176;28;19916;-80
2024/01/31 23:44:08;;;;;;;;;;;;;;;-146.07;100.00;70291.31;10474895;28;19912;-80
2024/01/31 23:49:09;;;;;;;;;;;;;;;-146.07;100.00;70291.31;10444679;28;19947;-82
2024/01/31 23:54:09;;;;;;;;;;;;;;;-146.07;100.00;70291.31;10475371;28;19920;-80
2024/01/31 23:59:09;;;;;;;;;;;;;;;-146.07;100.00;70291.31;10475132;28;20405;-81
